Airport ID:KBVU
Update Time (UTC):05/04/2020 19:03
Wind Speed (Knots):19
Wind Direction (Magnetic):160
Temperature (°C):20.9
Dew Point (°C):3.1
Humidity (%):31.3
Altimeter (inHg):29.77
Density Altitude (Feet):03700
Visibility (Miles):10
Clouds (Hundreds of feet):CLR
Present Weather:
METAR:METAR KBVU 051900Z AUTO 15020G26KT 10SM CLR 21/03 A2977 RMK AO2

The data displayed is for advisory purposes only and is not to be used for flight planning or operations.

This page is not automatically refreshed. Reload the page to see current data.